createdAt,value
2022-11-17T00:00:21.514Z,13.43
2022-11-17T00:02:24.166Z,13.27
2022-11-17T00:04:30.084Z,11.70
2022-11-17T00:06:32.676Z,13.17
2022-11-17T00:08:35.290Z,12.23
2022-11-17T00:10:37.909Z,14.10
2022-11-17T00:13:00.198Z,12.47
2022-11-17T00:15:02.761Z,12.80
2022-11-17T00:17:08.692Z,11.87
2022-11-17T00:19:30.157Z,14.30
2022-11-17T00:21:33.653Z,14.88
2022-11-17T00:23:50.557Z,13.23
2022-11-17T00:25:53.443Z,13.00
2022-11-17T00:27:56.029Z,12.43
2022-11-17T00:29:58.618Z,12.60
2022-11-17T00:32:19.854Z,11.50
2022-11-17T00:34:23.607Z,12.63
2022-11-17T00:36:26.540Z,13.63
2022-11-17T00:38:29.098Z,13.40
2022-11-17T00:40:31.696Z,11.90
2022-11-17T00:42:34.311Z,12.27
2022-11-17T00:44:36.992Z,12.40
2022-11-17T00:46:40.604Z,12.00
2022-11-17T00:48:43.252Z,11.90
2022-11-17T00:50:45.831Z,12.30
2022-11-17T00:52:48.415Z,13.60
2022-11-17T00:54:50.998Z,12.70
2022-11-17T00:56:53.594Z,12.65
2022-11-17T00:58:56.569Z,13.07
2022-11-17T01:00:59.152Z,12.70
2022-11-17T01:03:01.749Z,13.20
2022-11-17T01:05:04.716Z,12.13
2022-11-17T01:07:07.347Z,13.70
2022-11-17T01:09:14.080Z,13.50
2022-11-17T01:11:19.411Z,13.50
2022-11-17T01:13:21.920Z,12.35
2022-11-17T01:15:24.468Z,11.80
2022-11-17T01:17:27.086Z,12.07
2022-11-17T01:19:29.741Z,12.80
2022-11-17T01:21:33.094Z,13.30
2022-11-17T01:23:53.840Z,12.68
2022-11-17T01:26:03.449Z,11.83
2022-11-17T01:28:05.973Z,11.80
2022-11-17T01:30:09.582Z,13.00
2022-11-17T01:32:12.279Z,13.00
2022-11-17T01:34:14.826Z,14.50
2022-11-17T01:36:24.728Z,14.10
2022-11-17T01:38:27.336Z,13.20
2022-11-17T01:40:29.993Z,14.20
2022-11-17T01:42:32.595Z,13.40
2022-11-17T01:44:49.149Z,13.37
2022-11-17T01:46:53.716Z,14.10
2022-11-17T01:49:17.684Z,16.70
2022-11-17T01:51:20.634Z,16.87
2022-11-17T01:53:24.213Z,16.87
2022-11-17T01:55:37.368Z,16.93
2022-11-17T01:57:55.493Z,15.93
2022-11-17T02:00:05.231Z,16.03
2022-11-17T02:02:08.334Z,17.58
2022-11-17T02:04:11.182Z,15.70
2022-11-17T02:06:39.313Z,17.63
2022-11-17T02:08:45.071Z,16.37
2022-11-17T02:10:51.600Z,15.30
2022-11-17T02:13:05.250Z,15.75
2022-11-17T02:15:08.444Z,15.67
2022-11-17T02:17:14.497Z,15.33
2022-11-17T02:19:17.756Z,15.10
2022-11-17T02:21:39.580Z,14.37
2022-11-17T02:24:19.229Z,14.50
2022-11-17T02:26:38.326Z,16.17
2022-11-17T02:29:12.548Z,15.03
2022-11-17T02:31:37.586Z,14.97
2022-11-17T02:34:31.892Z,14.60
2022-11-17T02:37:00.358Z,13.80
2022-11-17T02:39:17.200Z,13.73
2022-11-17T02:42:07.319Z,12.73
2022-11-17T02:44:37.775Z,13.30
2022-11-17T02:46:53.994Z,13.00
2022-11-17T02:49:03.771Z,12.50
2022-11-17T02:51:15.240Z,15.82
2022-11-17T02:53:19.527Z,16.00
2022-11-17T02:55:22.175Z,18.33
2022-11-17T02:57:33.292Z,14.70
2022-11-17T02:59:46.336Z,13.60
2022-11-17T03:02:46.475Z,14.43
2022-11-17T03:05:04.915Z,15.45
2022-11-17T03:07:22.197Z,15.03
2022-11-17T03:10:14.910Z,15.63
2022-11-17T03:12:32.131Z,14.50
2022-11-17T03:14:53.331Z,14.73
2022-11-17T03:17:14.288Z,15.27
2022-11-17T03:19:44.133Z,14.43
2022-11-17T03:22:08.335Z,15.50
2022-11-17T03:24:34.385Z,12.90
2022-11-17T03:26:44.519Z,15.83
2022-11-17T03:28:47.497Z,13.23
2022-11-17T03:30:52.568Z,15.82
2022-11-17T03:33:05.187Z,15.90
2022-11-17T03:35:12.648Z,14.63
2022-11-17T03:37:19.516Z,14.77
2022-11-17T03:39:33.934Z,14.40
2022-11-17T03:41:42.395Z,14.10
2022-11-17T03:43:49.629Z,16.48
2022-11-17T03:45:55.647Z,15.60
2022-11-17T03:48:05.212Z,14.90
2022-11-17T03:50:30.846Z,13.30
2022-11-17T03:52:34.547Z,13.90
2022-11-17T03:55:02.996Z,14.57
2022-11-17T03:57:32.953Z,13.67
2022-11-17T04:00:02.301Z,12.00
2022-11-17T04:02:20.255Z,13.13
2022-11-17T04:04:23.259Z,13.43
2022-11-17T04:06:25.920Z,13.60
2022-11-17T04:08:30.688Z,15.43
2022-11-17T04:10:53.300Z,14.90
2022-11-17T04:13:14.575Z,12.07
2022-11-17T04:15:35.973Z,13.93
2022-11-17T04:17:38.515Z,14.23
2022-11-17T04:19:41.092Z,12.73
2022-11-17T04:21:43.649Z,12.80
2022-11-17T04:23:46.253Z,12.73
2022-11-17T04:26:10.039Z,13.83
2022-11-17T04:28:31.194Z,13.07
2022-11-17T04:30:33.785Z,12.17
2022-11-17T04:32:42.104Z,13.75
2022-11-17T04:34:44.676Z,12.80
2022-11-17T04:36:47.439Z,13.90
2022-11-17T04:38:53.264Z,12.17
2022-11-17T04:41:25.166Z,13.17
2022-11-17T04:43:38.059Z,10.83
2022-11-17T04:45:40.813Z,12.00
2022-11-17T04:47:43.362Z,12.67
2022-11-17T04:49:46.018Z,11.77
2022-11-17T04:51:49.398Z,12.13
2022-11-17T04:53:52.669Z,11.37
2022-11-17T04:55:59.876Z,11.80
2022-11-17T04:58:02.496Z,12.95
2022-11-17T05:00:06.531Z,13.93
2022-11-17T05:02:09.084Z,13.63
2022-11-17T05:04:14.857Z,11.83
2022-11-17T05:06:22.630Z,12.70
2022-11-17T05:08:25.210Z,13.83
2022-11-17T05:10:55.294Z,13.13
2022-11-17T05:13:18.342Z,12.50
2022-11-17T05:16:58.454Z,11.27
2022-11-17T05:19:06.540Z,11.70
2022-11-17T05:21:11.268Z,11.90
2022-11-17T05:23:32.487Z,13.17
2022-11-17T05:25:35.408Z,11.83
2022-11-17T05:27:38.709Z,13.13
2022-11-17T05:29:41.261Z,10.50
2022-11-17T05:31:44.302Z,12.20
2022-11-17T05:33:46.952Z,12.03
2022-11-17T05:35:49.555Z,12.07
2022-11-17T05:37:52.188Z,12.03
2022-11-17T05:39:54.915Z,11.67
2022-11-17T05:41:57.666Z,11.83
2022-11-17T05:44:00.532Z,13.67
2022-11-17T05:46:03.190Z,13.10
2022-11-17T05:48:07.027Z,12.97
2022-11-17T05:50:10.072Z,11.10
2022-11-17T05:52:12.798Z,13.17
2022-11-17T05:54:15.315Z,12.80
2022-11-17T05:56:46.889Z,11.93
2022-11-17T05:58:53.609Z,13.07
2022-11-17T06:00:58.097Z,11.80
2022-11-17T06:03:14.455Z,13.00
2022-11-17T06:05:20.417Z,13.00
2022-11-17T06:07:24.158Z,11.67
2022-11-17T06:09:32.011Z,11.97
2022-11-17T06:11:34.636Z,12.20
2022-11-17T06:13:37.611Z,11.30
2022-11-17T06:15:41.157Z,11.27
2022-11-17T06:17:51.353Z,10.93
2022-11-17T06:20:06.915Z,11.43
2022-11-17T06:22:12.548Z,12.00
2022-11-17T06:24:16.023Z,13.33
2022-11-17T06:26:20.236Z,10.90
2022-11-17T06:28:23.536Z,12.00
2022-11-17T06:30:26.127Z,12.03
2022-11-17T06:32:28.945Z,12.50
2022-11-17T06:34:33.001Z,12.17
2022-11-17T06:36:35.566Z,12.10
2022-11-17T06:38:38.209Z,11.73
2022-11-17T06:40:40.706Z,11.20
2022-11-17T06:43:02.415Z,11.60
2022-11-17T06:45:05.623Z,11.70
2022-11-17T06:47:08.167Z,11.53
2022-11-17T06:49:10.739Z,12.37
2022-11-17T06:51:13.532Z,10.77
2022-11-17T06:53:16.255Z,11.80
2022-11-17T06:55:18.867Z,11.73
2022-11-17T06:57:21.409Z,10.40
2022-11-17T06:59:23.972Z,11.57
2022-11-17T07:01:26.611Z,11.70
2022-11-17T07:03:29.663Z,11.27
2022-11-17T07:05:33.981Z,12.10
2022-11-17T07:07:37.101Z,11.80
2022-11-17T07:09:39.705Z,12.20
2022-11-17T07:11:42.336Z,10.60
2022-11-17T07:13:44.984Z,12.85
2022-11-17T07:15:49.537Z,11.87
2022-11-17T07:17:52.305Z,12.50
2022-11-17T07:19:55.087Z,11.73
2022-11-17T07:21:57.623Z,11.97
2022-11-17T07:24:00.312Z,12.15
2022-11-17T07:26:15.387Z,12.43
2022-11-17T07:28:18.874Z,11.85
2022-11-17T07:30:21.506Z,12.17
2022-11-17T07:32:24.817Z,10.83
2022-11-17T07:34:27.819Z,12.80
2022-11-17T07:36:30.371Z,11.60
2022-11-17T07:38:35.276Z,11.30
2022-11-17T07:40:38.226Z,11.83
2022-11-17T07:42:40.766Z,10.30
2022-11-17T07:44:43.330Z,11.48
2022-11-17T07:46:45.869Z,12.10
2022-11-17T07:48:48.498Z,11.50
2022-11-17T07:50:51.414Z,13.50
2022-11-17T07:52:56.552Z,12.40
2022-11-17T07:54:59.072Z,11.40
2022-11-17T07:57:01.855Z,10.47
2022-11-17T07:59:15.953Z,11.20
2022-11-17T08:01:21.421Z,11.13
2022-11-17T08:03:24.517Z,11.70
2022-11-17T08:05:30.603Z,10.47
2022-11-17T08:07:39.336Z,10.90
2022-11-17T08:09:42.025Z,11.40
2022-11-17T08:11:44.552Z,12.07
2022-11-17T08:13:47.260Z,10.70
2022-11-17T08:15:56.101Z,10.60
2022-11-17T08:18:01.151Z,12.38
2022-11-17T08:20:05.330Z,11.93
2022-11-17T08:22:08.277Z,12.37
2022-11-17T08:24:12.560Z,10.60
2022-11-17T08:26:15.136Z,11.77
2022-11-17T08:28:17.716Z,13.17
2022-11-17T08:30:20.629Z,12.00
2022-11-17T08:32:23.141Z,11.70
2022-11-17T08:34:25.668Z,11.90
2022-11-17T08:36:28.206Z,10.13
2022-11-17T08:38:30.808Z,11.70
2022-11-17T08:40:33.957Z,12.50
2022-11-17T08:42:36.538Z,12.50
2022-11-17T08:44:39.100Z,11.40
2022-11-17T08:46:41.608Z,13.60
2022-11-17T08:48:44.216Z,11.20
2022-11-17T08:50:47.013Z,11.20
2022-11-17T08:52:49.712Z,13.73
2022-11-17T08:54:52.472Z,11.03
2022-11-17T08:56:59.389Z,11.17
2022-11-17T08:59:02.453Z,10.73
2022-11-17T09:01:11.007Z,12.13
2022-11-17T09:03:46.731Z,11.53
2022-11-17T09:05:49.370Z,11.98
2022-11-17T09:07:52.101Z,12.10
2022-11-17T09:09:54.788Z,11.47
2022-11-17T09:11:58.077Z,11.47
2022-11-17T09:14:00.573Z,13.07
2022-11-17T09:16:09.694Z,12.70
2022-11-17T09:18:12.380Z,13.35
2022-11-17T09:20:17.262Z,13.70
2022-11-17T09:22:19.954Z,11.10
2022-11-17T09:24:22.620Z,13.38
2022-11-17T09:26:25.152Z,12.30
2022-11-17T09:28:27.899Z,12.50
2022-11-17T09:30:30.504Z,12.07
2022-11-17T09:32:35.150Z,11.60
2022-11-17T09:34:37.783Z,12.43
2022-11-17T09:36:40.415Z,12.30
2022-11-17T09:38:43.044Z,12.70
2022-11-17T09:40:45.596Z,13.50
2022-11-17T09:42:50.205Z,13.00
2022-11-17T09:45:34.379Z,12.85
2022-11-17T09:48:33.800Z,13.00
2022-11-17T09:50:35.053Z,12.88
2022-11-17T09:53:02.099Z,13.87
2022-11-17T09:55:33.718Z,13.60
2022-11-17T09:57:48.820Z,15.15
2022-11-17T10:00:15.024Z,14.27
2022-11-17T10:02:17.697Z,12.37
2022-11-17T10:04:20.577Z,12.40
2022-11-17T10:06:32.554Z,12.77
2022-11-17T10:09:12.593Z,12.30
2022-11-17T10:11:33.359Z,14.20
2022-11-17T10:13:37.953Z,11.70
2022-11-17T10:15:55.978Z,11.67
2022-11-17T10:17:58.572Z,11.57
2022-11-17T10:20:01.364Z,11.00
2022-11-17T10:22:03.916Z,12.13
2022-11-17T10:24:07.536Z,13.02
2022-11-17T10:26:13.566Z,12.17
2022-11-17T10:28:36.594Z,12.37
2022-11-17T10:30:39.128Z,11.53
2022-11-17T10:32:49.296Z,11.73
2022-11-17T10:34:51.983Z,11.23
2022-11-17T10:36:54.651Z,11.20
2022-11-17T10:38:59.913Z,11.80
2022-11-17T10:41:03.284Z,11.90
2022-11-17T10:43:11.692Z,12.03
2022-11-17T10:45:18.235Z,12.70
2022-11-17T10:47:32.031Z,11.95
2022-11-17T10:49:38.568Z,11.60
2022-11-17T10:52:16.426Z,11.50
2022-11-17T10:54:21.843Z,12.13
2022-11-17T10:56:25.023Z,12.47
2022-11-17T10:58:31.279Z,12.90
2022-11-17T11:00:36.534Z,11.73
2022-11-17T11:02:39.704Z,11.00
2022-11-17T11:04:43.008Z,10.80
2022-11-17T11:06:45.590Z,11.00
2022-11-17T11:09:17.009Z,11.80
2022-11-17T11:11:46.765Z,12.27
2022-11-17T11:13:57.856Z,12.17
2022-11-17T11:16:01.072Z,12.77
2022-11-17T11:18:13.739Z,11.53
2022-11-17T11:20:20.362Z,13.52
2022-11-17T11:22:52.912Z,12.50
2022-11-17T11:25:09.612Z,13.00
2022-11-17T11:28:12.912Z,12.63
2022-11-17T11:30:18.024Z,12.05
2022-11-17T11:32:43.348Z,11.63
2022-11-17T11:34:53.337Z,11.77
2022-11-17T11:37:13.188Z,11.87
2022-11-17T11:39:40.488Z,12.20
2022-11-17T11:42:06.366Z,13.23
2022-11-17T11:45:07.809Z,11.30
2022-11-17T11:47:37.028Z,13.60
2022-11-17T11:49:49.460Z,11.93
2022-11-17T11:51:53.038Z,12.40
2022-11-17T11:54:11.643Z,12.37
2022-11-17T11:56:42.948Z,11.43
2022-11-17T11:59:07.389Z,11.67
2022-11-17T12:01:12.183Z,11.37
2022-11-17T12:03:49.403Z,13.07
2022-11-17T12:06:29.665Z,11.90
2022-11-17T12:08:51.796Z,11.17
2022-11-17T12:11:27.158Z,11.80
2022-11-17T12:13:45.328Z,11.63
2022-11-17T12:15:50.042Z,11.07
2022-11-17T12:17:52.454Z,10.20
2022-11-17T12:20:07.609Z,10.53
2022-11-17T12:22:34.121Z,10.63
2022-11-17T12:24:41.992Z,10.10
2022-11-17T12:26:45.060Z,10.37
2022-11-17T12:28:47.754Z,11.27
2022-11-17T12:30:54.109Z,10.40
2022-11-17T12:33:04.790Z,12.10
2022-11-17T12:35:27.766Z,11.40
2022-11-17T12:37:30.331Z,12.83
2022-11-17T12:40:06.673Z,11.60
2022-11-17T12:42:09.249Z,10.13
2022-11-17T12:44:43.987Z,10.57
2022-11-17T12:46:48.150Z,9.93
2022-11-17T12:49:07.133Z,10.23
2022-11-17T12:51:35.466Z,9.80
2022-11-17T12:53:54.836Z,11.00
2022-11-17T12:56:32.760Z,9.67
2022-11-17T12:58:48.813Z,10.40
2022-11-17T13:01:31.547Z,11.00
2022-11-17T13:03:54.616Z,11.13
2022-11-17T13:06:33.752Z,10.07
2022-11-17T13:08:30.985Z,11.20
2022-11-17T13:10:33.513Z,10.53
2022-11-17T13:12:37.330Z,11.80
2022-11-17T13:15:03.901Z,10.93
2022-11-17T13:17:12.688Z,10.93
2022-11-17T13:19:37.245Z,10.82
2022-11-17T13:21:39.874Z,11.37
2022-11-17T13:23:45.828Z,11.03
2022-11-17T13:25:50.389Z,9.87
2022-11-17T13:27:58.413Z,10.57
2022-11-17T13:30:31.779Z,10.47
2022-11-17T13:32:34.364Z,10.07
2022-11-17T13:35:23.629Z,10.27
2022-11-17T13:37:28.805Z,10.70
2022-11-17T13:39:31.354Z,9.67
2022-11-17T13:41:40.718Z,9.97
2022-11-17T13:43:45.986Z,10.47
2022-11-17T13:45:50.585Z,10.10
2022-11-17T13:47:54.410Z,10.30
2022-11-17T13:50:23.004Z,9.90
2022-11-17T13:52:40.464Z,11.83
2022-11-17T13:54:46.499Z,10.60
2022-11-17T13:56:56.716Z,11.90
2022-11-17T13:59:06.842Z,9.77
2022-11-17T14:01:13.294Z,9.10
2022-11-17T14:04:22.483Z,10.53
2022-11-17T14:06:25.307Z,10.50
2022-11-17T14:08:32.202Z,10.57
2022-11-17T14:10:38.749Z,10.50
2022-11-17T14:12:41.770Z,9.80
2022-11-17T14:14:45.047Z,9.03
2022-11-17T14:16:47.607Z,10.03
2022-11-17T14:19:03.567Z,9.60
2022-11-17T14:21:12.425Z,8.90
2022-11-17T14:23:15.511Z,9.03
2022-11-17T14:25:18.106Z,9.50
2022-11-17T14:27:29.798Z,10.60
2022-11-17T14:29:32.354Z,8.73
2022-11-17T14:31:34.917Z,8.73
2022-11-17T14:33:37.921Z,10.43
2022-11-17T14:35:40.975Z,8.77
2022-11-17T14:37:43.612Z,10.50
2022-11-17T14:39:46.185Z,9.10
2022-11-17T14:41:50.677Z,8.57
2022-11-17T14:43:53.283Z,9.93
2022-11-17T14:45:55.958Z,10.00
2022-11-17T14:47:58.553Z,9.23
2022-11-17T14:50:01.247Z,9.23
2022-11-17T14:52:12.907Z,9.60
2022-11-17T14:54:17.623Z,10.53
2022-11-17T14:56:24.603Z,11.37
2022-11-17T14:58:27.304Z,10.20
2022-11-17T15:00:30.222Z,10.40
2022-11-17T15:02:35.396Z,9.50
2022-11-17T15:04:56.372Z,10.27
2022-11-17T15:06:59.463Z,10.13
2022-11-17T15:09:05.631Z,9.90
2022-11-17T15:11:16.705Z,10.20
2022-11-17T15:13:19.644Z,10.63
2022-11-17T15:15:22.189Z,10.93
2022-11-17T15:17:26.222Z,12.03
2022-11-17T15:19:28.795Z,11.03
2022-11-17T15:21:31.371Z,10.37
2022-11-17T15:23:37.423Z,11.50
2022-11-17T15:25:40.000Z,10.03
2022-11-17T15:27:42.528Z,10.37
2022-11-17T15:29:45.115Z,9.27
2022-11-17T15:31:47.672Z,11.00
2022-11-17T15:34:21.930Z,12.25
2022-11-17T15:36:28.786Z,12.07
2022-11-17T15:38:35.511Z,11.63
2022-11-17T15:40:48.060Z,10.37
2022-11-17T15:42:55.800Z,11.97
2022-11-17T15:44:58.564Z,12.30
2022-11-17T15:47:01.229Z,11.20
2022-11-17T15:49:03.907Z,12.02
2022-11-17T15:51:10.432Z,11.03
2022-11-17T15:53:38.593Z,9.93
2022-11-17T15:55:41.248Z,10.90
2022-11-17T15:57:43.851Z,10.53
2022-11-17T15:59:46.472Z,9.85
2022-11-17T16:01:49.486Z,10.70
2022-11-17T16:03:53.678Z,10.57
2022-11-17T16:05:56.182Z,11.52
2022-11-17T16:08:05.117Z,11.37
2022-11-17T16:10:07.914Z,9.65
2022-11-17T16:12:10.524Z,11.13
2022-11-17T16:14:14.853Z,10.97
2022-11-17T16:16:17.576Z,11.10
2022-11-17T16:18:20.537Z,10.57
2022-11-17T16:20:23.165Z,11.67
2022-11-17T16:22:27.173Z,9.67
2022-11-17T16:24:29.754Z,9.40
2022-11-17T16:26:38.600Z,10.70
2022-11-17T16:28:41.781Z,10.23
2022-11-17T16:30:44.706Z,9.67
2022-11-17T16:32:47.261Z,10.23
2022-11-17T16:34:49.821Z,10.30
2022-11-17T16:36:52.364Z,9.57
2022-11-17T16:39:01.830Z,9.83
2022-11-17T16:41:05.217Z,10.03
2022-11-17T16:43:11.980Z,9.90
2022-11-17T16:45:14.705Z,11.10
2022-11-17T16:47:17.292Z,11.47
2022-11-17T16:49:20.411Z,11.43
2022-11-17T16:51:25.365Z,10.90
2022-11-17T16:53:34.932Z,11.40
2022-11-17T16:55:40.332Z,10.83
2022-11-17T16:57:45.715Z,11.20
2022-11-17T16:59:48.277Z,11.07
2022-11-17T17:01:50.895Z,11.17
2022-11-17T17:04:07.622Z,11.60
2022-11-17T17:06:15.467Z,11.23
2022-11-17T17:08:18.012Z,11.80
2022-11-17T17:10:20.596Z,10.57
2022-11-17T17:12:23.218Z,11.83
2022-11-17T17:14:25.844Z,12.03
2022-11-17T17:16:29.666Z,10.60
2022-11-17T17:18:33.311Z,11.57
2022-11-17T17:20:36.008Z,11.80
2022-11-17T17:22:38.580Z,11.23
2022-11-17T17:24:41.894Z,11.70
2022-11-17T17:26:44.454Z,12.10
2022-11-17T17:28:49.708Z,12.90
2022-11-17T17:30:55.669Z,13.15
2022-11-17T17:32:59.122Z,12.03
2022-11-17T17:35:01.765Z,11.77
2022-11-17T17:37:04.339Z,12.00
2022-11-17T17:39:07.255Z,12.57
2022-11-17T17:41:37.925Z,11.70
2022-11-17T17:43:42.412Z,12.10
2022-11-17T17:45:47.014Z,14.00
2022-11-17T17:47:49.561Z,12.70
2022-11-17T17:49:52.105Z,13.20
2022-11-17T17:51:54.732Z,12.17
2022-11-17T17:54:02.140Z,12.03
2022-11-17T17:56:08.674Z,14.18
2022-11-17T17:58:11.353Z,13.33
2022-11-17T18:00:14.593Z,12.80
2022-11-17T18:02:17.098Z,12.93
2022-11-17T18:04:19.751Z,12.63
2022-11-17T18:06:22.830Z,13.02
2022-11-17T18:08:25.639Z,12.93
2022-11-17T18:10:37.203Z,11.83
2022-11-17T18:12:39.749Z,13.98
2022-11-17T18:14:42.300Z,12.47
2022-11-17T18:16:44.865Z,13.65
2022-11-17T18:18:48.012Z,12.23
2022-11-17T18:21:05.438Z,12.77
2022-11-17T18:23:08.174Z,14.75
2022-11-17T18:25:15.090Z,12.90
2022-11-17T18:27:20.211Z,13.90
2022-11-17T18:29:22.821Z,11.57
2022-11-17T18:31:31.498Z,12.73
2022-11-17T18:33:34.312Z,11.30
2022-11-17T18:35:36.894Z,11.17
2022-11-17T18:37:39.444Z,12.20
2022-11-17T18:39:53.129Z,10.77
2022-11-17T18:41:56.146Z,11.10
2022-11-17T18:43:58.767Z,12.83
2022-11-17T18:46:13.980Z,11.27
2022-11-17T18:48:16.597Z,10.77
2022-11-17T18:50:19.149Z,14.15
2022-11-17T18:52:23.178Z,12.10
2022-11-17T18:54:27.427Z,12.20
2022-11-17T18:56:35.607Z,12.10
2022-11-17T18:58:40.025Z,10.80
2022-11-17T19:00:42.610Z,11.77
2022-11-17T19:02:45.227Z,12.00
2022-11-17T19:04:47.728Z,12.50
2022-11-17T19:06:51.058Z,12.20
2022-11-17T19:08:54.418Z,12.83
2022-11-17T19:10:59.814Z,13.03
2022-11-17T19:13:05.883Z,11.03
2022-11-17T19:15:08.780Z,12.20
2022-11-17T19:17:11.343Z,11.43
2022-11-17T19:19:15.101Z,11.77
2022-11-17T19:21:21.585Z,11.70
2022-11-17T19:23:24.124Z,11.50
2022-11-17T19:25:26.697Z,11.53
2022-11-17T19:27:29.231Z,13.20
2022-11-17T19:29:43.104Z,11.53
2022-11-17T19:31:46.910Z,12.73
2022-11-17T19:33:50.299Z,12.13
2022-11-17T19:36:48.129Z,12.57
2022-11-17T19:38:53.216Z,15.05
2022-11-17T19:40:55.722Z,14.67
2022-11-17T19:43:10.544Z,12.03
2022-11-17T19:45:13.132Z,14.27
2022-11-17T19:47:15.803Z,14.23
2022-11-17T19:49:18.593Z,12.33
2022-11-17T19:51:30.290Z,14.00
2022-11-17T19:53:32.820Z,14.73
2022-11-17T19:55:37.416Z,13.90
2022-11-17T19:57:39.977Z,14.48
2022-11-17T19:59:42.644Z,12.67
2022-11-17T20:02:40.135Z,12.98
2022-11-17T20:04:42.793Z,13.67
2022-11-17T20:06:45.411Z,11.88
2022-11-17T20:08:48.590Z,12.10
2022-11-17T20:10:51.169Z,12.03
2022-11-17T20:12:53.721Z,12.68
2022-11-17T20:14:56.296Z,12.67
2022-11-17T20:16:58.895Z,10.90
2022-11-17T20:19:05.722Z,12.18
2022-11-17T20:21:10.029Z,14.83
2022-11-17T20:23:12.546Z,13.07
2022-11-17T20:25:16.159Z,13.20
2022-11-17T20:27:19.166Z,11.60
2022-11-17T20:29:21.778Z,13.75
2022-11-17T20:31:30.924Z,14.20
2022-11-17T20:33:34.455Z,13.00
2022-11-17T20:35:37.349Z,12.90
2022-11-17T20:37:40.049Z,12.40
2022-11-17T20:39:42.641Z,12.90
2022-11-17T20:41:45.217Z,14.40
2022-11-17T20:43:49.703Z,12.77
2022-11-17T20:45:56.541Z,13.37
2022-11-17T20:47:59.121Z,13.90
2022-11-17T20:50:01.769Z,15.03
2022-11-17T20:52:07.977Z,13.80
2022-11-17T20:54:14.734Z,13.20
2022-11-17T20:56:18.333Z,17.05
2022-11-17T20:58:21.559Z,17.10
2022-11-17T21:00:24.115Z,14.97
2022-11-17T21:02:26.737Z,15.67
2022-11-17T21:04:29.312Z,16.00
2022-11-17T21:06:32.082Z,16.20
2022-11-17T21:08:37.836Z,15.67
2022-11-17T21:10:40.448Z,14.87
2022-11-17T21:13:38.426Z,15.50
2022-11-17T21:15:40.985Z,13.17
2022-11-17T21:18:01.997Z,14.80
2022-11-17T21:20:05.144Z,15.10
2022-11-17T21:22:07.825Z,16.20
2022-11-17T21:24:11.193Z,16.00
2022-11-17T21:26:19.243Z,16.10
2022-11-17T21:28:21.895Z,15.73
2022-11-17T21:30:24.467Z,16.73
2022-11-17T21:32:27.170Z,18.77
2022-11-17T21:34:29.765Z,18.57
2022-11-17T21:36:33.990Z,16.37
2022-11-17T21:38:36.956Z,15.60
2022-11-17T21:40:39.564Z,15.37
2022-11-17T21:42:42.187Z,15.17
2022-11-17T21:44:44.738Z,16.65
2022-11-17T21:46:47.467Z,18.77
2022-11-17T21:48:51.429Z,14.67
2022-11-17T21:50:55.213Z,14.80
2022-11-17T21:52:57.857Z,12.97
2022-11-17T21:55:00.426Z,13.10
2022-11-17T21:57:03.430Z,14.00
2022-11-17T21:59:11.347Z,14.97
2022-11-17T22:01:16.122Z,13.47
2022-11-17T22:03:18.771Z,15.03
2022-11-17T22:05:22.623Z,13.50
2022-11-17T22:07:25.275Z,12.50
2022-11-17T22:09:29.089Z,14.43
2022-11-17T22:11:38.480Z,14.20
2022-11-17T22:13:42.181Z,13.67
2022-11-17T22:15:44.739Z,13.90
2022-11-17T22:17:47.284Z,14.37
2022-11-17T22:19:49.911Z,15.50
2022-11-17T22:21:54.139Z,14.90
2022-11-17T22:23:56.737Z,14.57
2022-11-17T22:26:03.849Z,14.83
2022-11-17T22:28:06.409Z,14.97
2022-11-17T22:30:09.756Z,13.13
2022-11-17T22:32:12.336Z,14.27
2022-11-17T22:34:15.717Z,14.90
2022-11-17T22:36:19.152Z,15.57
2022-11-17T22:38:21.757Z,15.00
2022-11-17T22:40:24.332Z,15.50
2022-11-17T22:42:26.884Z,15.80
2022-11-17T22:44:29.510Z,15.07
2022-11-17T22:46:32.273Z,16.07
2022-11-17T22:48:40.683Z,16.00
2022-11-17T22:50:43.242Z,15.13
2022-11-17T22:52:45.933Z,16.97
2022-11-17T22:54:48.471Z,16.67
2022-11-17T22:56:51.028Z,16.33
2022-11-17T22:58:58.361Z,15.90
2022-11-17T23:01:08.058Z,15.30
2022-11-17T23:03:11.627Z,17.17
2022-11-17T23:05:14.250Z,16.57
2022-11-17T23:07:16.855Z,16.00
2022-11-17T23:09:19.881Z,17.10
2022-11-17T23:11:36.496Z,17.97
2022-11-17T23:13:40.353Z,20.03
2022-11-17T23:15:44.354Z,19.20
2022-11-17T23:17:48.834Z,18.90
2022-11-17T23:19:51.490Z,19.17
2022-11-17T23:21:54.043Z,19.57
2022-11-17T23:23:57.311Z,17.93
2022-11-17T23:26:08.943Z,17.43
2022-11-17T23:28:11.719Z,19.30
2022-11-17T23:30:14.419Z,18.17
2022-11-17T23:33:09.662Z,20.53
2022-11-17T23:35:12.255Z,19.07
2022-11-17T23:37:19.959Z,18.30
2022-11-17T23:39:28.888Z,19.60
2022-11-17T23:41:44.781Z,19.57
2022-11-17T23:43:53.697Z,21.03
2022-11-17T23:45:57.290Z,20.43
2022-11-17T23:47:59.826Z,21.53
2022-11-17T23:50:02.403Z,22.03
2022-11-17T23:52:04.978Z,20.33
2022-11-17T23:54:07.567Z,24.88
2022-11-17T23:56:10.963Z,23.13
2022-11-17T23:58:13.575Z,20.73
